sensor_id;sensor_type;location;lat;lon;timestamp;pressure;altitude;pressure_sealevel;temperature;humidity
30110;BME280;14965;50.660;13.226;2023-04-28T00:00:42;95007.06;;;4.84;61.52
30110;BME280;14965;50.660;13.226;2023-04-28T00:03:08;95006.28;;;4.87;61.37
30110;BME280;14965;50.660;13.226;2023-04-28T00:05:34;94993.34;;;4.87;60.75
30110;BME280;14965;50.660;13.226;2023-04-28T00:08:01;94994.53;;;4.90;61.13
30110;BME280;14965;50.660;13.226;2023-04-28T00:10:27;94992.16;;;4.92;60.75
30110;BME280;14965;50.660;13.226;2023-04-28T00:12:53;94991.38;;;4.91;60.40
30110;BME280;14965;50.660;13.226;2023-04-28T00:15:19;94988.25;;;4.93;59.81
30110;BME280;14965;50.660;13.226;2023-04-28T00:17:45;94988.63;;;4.95;60.25
30110;BME280;14965;50.660;13.226;2023-04-28T00:20:11;94987.47;;;4.92;59.77
30110;BME280;14965;50.660;13.226;2023-04-28T00:22:37;94981.22;;;4.92;59.72
30110;BME280;14965;50.660;13.226;2023-04-28T00:25:05;94980.44;;;4.91;59.97
30110;BME280;14965;50.660;13.226;2023-04-28T00:27:32;94983.16;;;4.95;60.15
30110;BME280;14965;50.660;13.226;2023-04-28T00:29:57;94978.09;;;4.93;60.18
30110;BME280;14965;50.660;13.226;2023-04-28T00:32:23;94974.19;;;4.94;59.66
30110;BME280;14965;50.660;13.226;2023-04-28T00:34:49;94975.72;;;4.95;59.72
30110;BME280;14965;50.660;13.226;2023-04-28T00:37:15;94965.97;;;4.94;59.69
30110;BME280;14965;50.660;13.226;2023-04-28T00:39:41;94964.78;;;4.95;59.41
30110;BME280;14965;50.660;13.226;2023-04-28T00:42:08;94967.50;;;4.99;59.34
30110;BME280;14965;50.660;13.226;2023-04-28T00:44:34;94958.50;;;4.98;59.50
30110;BME280;14965;50.660;13.226;2023-04-28T00:47:00;94967.09;;;5.00;59.08
30110;BME280;14965;50.660;13.226;2023-04-28T00:49:26;94967.88;;;5.01;59.28
30110;BME280;14965;50.660;13.226;2023-04-28T00:51:52;94957.69;;;5.02;59.00
30110;BME280;14965;50.660;13.226;2023-04-28T00:54:18;94962.78;;;5.03;58.73
30110;BME280;14965;50.660;13.226;2023-04-28T00:56:44;94956.13;;;5.04;59.12
30110;BME280;14965;50.660;13.226;2023-04-28T00:59:11;94953.78;;;5.06;59.43
30110;BME280;14965;50.660;13.226;2023-04-28T01:01:37;94949.84;;;5.07;58.70
30110;BME280;14965;50.660;13.226;2023-04-28T01:04:03;94935.41;;;5.07;59.02
30110;BME280;14965;50.660;13.226;2023-04-28T01:06:30;94929.50;;;5.08;59.30
30110;BME280;14965;50.660;13.226;2023-04-28T01:08:56;94940.06;;;5.10;58.88
30110;BME280;14965;50.660;13.226;2023-04-28T01:11:22;94927.13;;;5.14;58.55
30110;BME280;14965;50.660;13.226;2023-04-28T01:13:48;94933.34;;;5.18;58.09
30110;BME280;14965;50.660;13.226;2023-04-28T01:16:15;94936.06;;;5.21;58.23
30110;BME280;14965;50.660;13.226;2023-04-28T01:18:46;94922.34;;;5.25;58.44
30110;BME280;14965;50.660;13.226;2023-04-28T01:21:12;94918.41;;;5.30;58.60
30110;BME280;14965;50.660;13.226;2023-04-28T01:23:38;94914.09;;;5.32;58.28
30110;BME280;14965;50.660;13.226;2023-04-28T01:26:05;94916.84;;;5.32;58.37
30110;BME280;14965;50.660;13.226;2023-04-28T01:28:31;94921.13;;;5.33;57.61
30110;BME280;14965;50.660;13.226;2023-04-28T01:30:57;94915.19;;;5.38;57.84
30110;BME280;14965;50.660;13.226;2023-04-28T01:33:23;94921.81;;;5.44;57.86
30110;BME280;14965;50.660;13.226;2023-04-28T01:35:49;94921.81;;;5.44;57.38
30110;BME280;14965;50.660;13.226;2023-04-28T01:38:14;94918.25;;;5.47;57.27
30110;BME280;14965;50.660;13.226;2023-04-28T01:40:40;94923.34;;;5.49;57.84
30110;BME280;14965;50.660;13.226;2023-04-28T01:43:08;94920.97;;;5.51;57.37
30110;BME280;14965;50.660;13.226;2023-04-28T01:45:33;94921.34;;;5.53;57.45
30110;BME280;14965;50.660;13.226;2023-04-28T01:47:59;94926.06;;;5.53;57.33
30110;BME280;14965;50.660;13.226;2023-04-28T01:50:25;94929.94;;;5.55;57.61
30110;BME280;14965;50.660;13.226;2023-04-28T01:52:51;94921.72;;;5.55;57.36
30110;BME280;14965;50.660;13.226;2023-04-28T01:55:17;94915.06;;;5.56;57.31
30110;BME280;14965;50.660;13.226;2023-04-28T01:57:43;94914.25;;;5.59;57.49
30110;BME280;14965;50.660;13.226;2023-04-28T02:00:11;94919.72;;;5.59;58.19
30110;BME280;14965;50.660;13.226;2023-04-28T02:02:37;94906.03;;;5.59;58.18
30110;BME280;14965;50.660;13.226;2023-04-28T02:05:03;94917.38;;;5.61;57.85
30110;BME280;14965;50.660;13.226;2023-04-28T02:07:29;94915.00;;;5.63;58.30
30110;BME280;14965;50.660;13.226;2023-04-28T02:09:55;94912.22;;;5.67;58.13
30110;BME280;14965;50.660;13.226;2023-04-28T02:12:21;94915.72;;;5.67;57.48
30110;BME280;14965;50.660;13.226;2023-04-28T02:14:46;94911.81;;;5.68;57.67
30110;BME280;14965;50.660;13.226;2023-04-28T02:17:14;94920.44;;;5.67;57.76
30110;BME280;14965;50.660;13.226;2023-04-28T02:19:39;94913.44;;;5.62;58.12
30110;BME280;14965;50.660;13.226;2023-04-28T02:22:05;94910.69;;;5.62;57.68
30110;BME280;14965;50.660;13.226;2023-04-28T02:24:34;94905.63;;;5.61;57.92
30110;BME280;14965;50.660;13.226;2023-04-28T02:27:00;94904.47;;;5.58;58.02
30110;BME280;14965;50.660;13.226;2023-04-28T02:29:26;94904.88;;;5.57;58.09
30110;BME280;14965;50.660;13.226;2023-04-28T02:31:52;94903.31;;;5.56;58.07
30110;BME280;14965;50.660;13.226;2023-04-28T02:34:19;94910.75;;;5.55;58.52
30110;BME280;14965;50.660;13.226;2023-04-28T02:36:45;94903.38;;;5.52;58.13
30110;BME280;14965;50.660;13.226;2023-04-28T02:39:11;94902.56;;;5.52;58.61
30110;BME280;14965;50.660;13.226;2023-04-28T02:41:37;94896.31;;;5.51;58.15
30110;BME280;14965;50.660;13.226;2023-04-28T02:44:03;94883.00;;;5.53;58.63
30110;BME280;14965;50.660;13.226;2023-04-28T02:46:29;94886.09;;;5.55;58.50
30110;BME280;14965;50.660;13.226;2023-04-28T02:48:55;94885.28;;;5.58;58.88
30110;BME280;14965;50.660;13.226;2023-04-28T02:51:22;94882.94;;;5.60;58.89
30110;BME280;14965;50.660;13.226;2023-04-28T02:53:48;94884.88;;;5.60;58.49
30110;BME280;14965;50.660;13.226;2023-04-28T02:56:14;94882.88;;;5.64;58.85
30110;BME280;14965;50.660;13.226;2023-04-28T02:58:39;94876.59;;;5.67;58.50
30110;BME280;14965;50.660;13.226;2023-04-28T03:01:05;94883.59;;;5.71;58.28
30110;BME280;14965;50.660;13.226;2023-04-28T03:03:31;94887.88;;;5.72;58.45
30110;BME280;14965;50.660;13.226;2023-04-28T03:05:57;94885.88;;;5.77;57.98
30110;BME280;14965;50.660;13.226;2023-04-28T03:08:24;94887.06;;;5.79;58.04
30110;BME280;14965;50.660;13.226;2023-04-28T03:10:50;94872.94;;;5.81;58.27
30110;BME280;14965;50.660;13.226;2023-04-28T03:13:16;94883.09;;;5.84;57.81
30110;BME280;14965;50.660;13.226;2023-04-28T03:15:42;94881.91;;;5.85;58.18
30110;BME280;14965;50.660;13.226;2023-04-28T03:18:07;94883.47;;;5.86;57.98
30110;BME280;14965;50.660;13.226;2023-04-28T03:20:33;94872.88;;;5.88;57.51
30110;BME280;14965;50.660;13.226;2023-04-28T03:22:59;94874.41;;;5.89;57.85
30110;BME280;14965;50.660;13.226;2023-04-28T03:25:26;94871.66;;;5.89;57.80
30110;BME280;14965;50.660;13.226;2023-04-28T03:27:53;94874.03;;;5.94;58.57
30110;BME280;14965;50.660;13.226;2023-04-28T03:30:19;94874.78;;;5.94;57.81
30110;BME280;14965;50.660;13.226;2023-04-28T03:32:45;94870.09;;;5.95;57.66
30110;BME280;14965;50.660;13.226;2023-04-28T03:35:10;94868.91;;;5.96;57.60
30110;BME280;14965;50.660;13.226;2023-04-28T03:37:36;94867.31;;;5.98;57.96
30110;BME280;14965;50.660;13.226;2023-04-28T03:40:03;94867.66;;;6.01;57.87
30110;BME280;14965;50.660;13.226;2023-04-28T03:42:30;94866.84;;;6.04;57.60
30110;BME280;14965;50.660;13.226;2023-04-28T03:44:56;94864.88;;;6.04;57.74
30110;BME280;14965;50.660;13.226;2023-04-28T03:47:22;94866.81;;;6.07;57.08
30110;BME280;14965;50.660;13.226;2023-04-28T03:49:47;94861.69;;;6.09;57.40
30110;BME280;14965;50.660;13.226;2023-04-28T03:52:13;94863.25;;;6.10;57.34
30110;BME280;14965;50.660;13.226;2023-04-28T03:54:39;94869.09;;;6.12;57.47
30110;BME280;14965;50.660;13.226;2023-04-28T03:57:05;94861.66;;;6.13;57.31
30110;BME280;14965;50.660;13.226;2023-04-28T03:59:32;94849.50;;;6.14;57.28
30110;BME280;14965;50.660;13.226;2023-04-28T04:01:58;94851.84;;;6.15;57.59
30110;BME280;14965;50.660;13.226;2023-04-28T04:04:24;94850.22;;;6.18;57.80
30110;BME280;14965;50.660;13.226;2023-04-28T04:06:51;94848.69;;;6.17;57.78
30110;BME280;14965;50.660;13.226;2023-04-28T04:09:17;94847.47;;;6.18;57.34
30110;BME280;14965;50.660;13.226;2023-04-28T04:11:43;94841.66;;;6.16;57.81
30110;BME280;14965;50.660;13.226;2023-04-28T04:14:09;94842.41;;;6.16;57.81
30110;BME280;14965;50.660;13.226;2023-04-28T04:16:36;94842.78;;;6.18;57.66
30110;BME280;14965;50.660;13.226;2023-04-28T04:19:02;94842.41;;;6.16;58.20
30110;BME280;14965;50.660;13.226;2023-04-28T04:21:29;94831.44;;;6.16;58.48
30110;BME280;14965;50.660;13.226;2023-04-28T04:23:55;94825.53;;;6.18;57.74
30110;BME280;14965;50.660;13.226;2023-04-28T04:26:21;94831.81;;;6.18;58.05
30110;BME280;14965;50.660;13.226;2023-04-28T04:28:47;94829.88;;;6.19;58.27
30110;BME280;14965;50.660;13.226;2023-04-28T04:31:13;94834.94;;;6.20;58.55
30110;BME280;14965;50.660;13.226;2023-04-28T04:33:40;94827.44;;;6.24;58.14
30110;BME280;14965;50.660;13.226;2023-04-28T04:36:07;94833.19;;;6.34;58.40
30110;BME280;14965;50.660;13.226;2023-04-28T04:38:33;94833.06;;;6.44;57.33
30110;BME280;14965;50.660;13.226;2023-04-28T04:40:59;94826.69;;;6.51;57.73
30110;BME280;14965;50.660;13.226;2023-04-28T04:43:25;94821.44;;;6.60;57.54
30110;BME280;14965;50.660;13.226;2023-04-28T04:45:51;94822.50;;;6.70;57.39
30110;BME280;14965;50.660;13.226;2023-04-28T04:48:17;94821.59;;;6.77;57.04
30110;BME280;14965;50.660;13.226;2023-04-28T04:50:44;94825.03;;;6.84;56.82
30110;BME280;14965;50.660;13.226;2023-04-28T04:53:10;94822.19;;;6.91;56.72
30110;BME280;14965;50.660;13.226;2023-04-28T04:55:37;94822.09;;;6.98;56.68
30110;BME280;14965;50.660;13.226;2023-04-28T04:58:03;94823.44;;;7.10;56.60
30110;BME280;14965;50.660;13.226;2023-04-28T05:00:30;94818.13;;;7.23;55.14
30110;BME280;14965;50.660;13.226;2023-04-28T05:02:55;94817.13;;;7.37;56.29
30110;BME280;14965;50.660;13.226;2023-04-28T05:05:21;94813.00;;;7.48;55.17
30110;BME280;14965;50.660;13.226;2023-04-28T05:07:48;94813.63;;;7.56;55.18
30110;BME280;14965;50.660;13.226;2023-04-28T05:10:14;94816.25;;;7.63;54.88
30110;BME280;14965;50.660;13.226;2023-04-28T05:12:40;94815.31;;;7.73;54.51
30110;BME280;14965;50.660;13.226;2023-04-28T05:15:07;94795.84;;;7.84;54.40
30110;BME280;14965;50.660;13.226;2023-04-28T05:17:33;94794.72;;;8.02;54.28
30110;BME280;14965;50.660;13.226;2023-04-28T05:19:59;94795.66;;;8.31;53.94
30110;BME280;14965;50.660;13.226;2023-04-28T05:22:26;94786.63;;;9.03;51.37
30110;BME280;14965;50.660;13.226;2023-04-28T05:24:53;94778.84;;;10.05;48.84
30110;BME280;14965;50.660;13.226;2023-04-28T05:27:19;94770.59;;;10.18;47.79
30110;BME280;14965;50.660;13.226;2023-04-28T05:29:45;94772.66;;;10.81;47.12
30110;BME280;14965;50.660;13.226;2023-04-28T05:32:11;94766.06;;;11.73;45.03
30110;BME280;14965;50.660;13.226;2023-04-28T05:34:37;94771.97;;;11.98;43.92
30110;BME280;14965;50.660;13.226;2023-04-28T05:37:03;94775.44;;;12.11;43.55
30110;BME280;14965;50.660;13.226;2023-04-28T05:39:29;94771.63;;;12.08;43.36
30110;BME280;14965;50.660;13.226;2023-04-28T05:41:56;94769.91;;;12.11;43.93
30110;BME280;14965;50.660;13.226;2023-04-28T05:44:22;94780.34;;;12.07;43.52
30110;BME280;14965;50.660;13.226;2023-04-28T05:46:48;94782.97;;;11.54;44.30
30110;BME280;14965;50.660;13.226;2023-04-28T05:49:14;94778.94;;;11.07;45.71
30110;BME280;14965;50.660;13.226;2023-04-28T05:51:40;94777.53;;;10.64;46.77
30110;BME280;14965;50.660;13.226;2023-04-28T05:54:06;94776.94;;;10.44;47.97
30110;BME280;14965;50.660;13.226;2023-04-28T05:56:32;94777.47;;;10.26;48.40
30110;BME280;14965;50.660;13.226;2023-04-28T05:58:59;94774.00;;;10.09;48.98
30110;BME280;14965;50.660;13.226;2023-04-28T06:01:25;94777.34;;;9.88;49.02
30110;BME280;14965;50.660;13.226;2023-04-28T06:03:51;94786.19;;;9.66;49.49
30110;BME280;14965;50.660;13.226;2023-04-28T06:06:18;94779.41;;;9.55;50.31
30110;BME280;14965;50.660;13.226;2023-04-28T06:08:44;94782.94;;;9.55;51.23
30110;BME280;14965;50.660;13.226;2023-04-28T06:11:10;94777.97;;;9.50;50.86
30110;BME280;14965;50.660;13.226;2023-04-28T06:13:36;94785.88;;;9.48;51.02
30110;BME280;14965;50.660;13.226;2023-04-28T06:16:04;94779.84;;;9.53;51.26
30110;BME280;14965;50.660;13.226;2023-04-28T06:18:30;94780.72;;;9.50;51.70
30110;BME280;14965;50.660;13.226;2023-04-28T06:20:56;94777.25;;;9.62;51.96
30110;BME280;14965;50.660;13.226;2023-04-28T06:23:22;94773.41;;;9.72;51.15
30110;BME280;14965;50.660;13.226;2023-04-28T06:25:48;94764.41;;;9.85;50.85
30110;BME280;14965;50.660;13.226;2023-04-28T06:28:14;94767.00;;;9.92;51.18
30110;BME280;14965;50.660;13.226;2023-04-28T06:30:40;94763.38;;;9.95;50.65
30110;BME280;14965;50.660;13.226;2023-04-28T06:33:08;94765.09;;;9.89;50.46
30110;BME280;14965;50.660;13.226;2023-04-28T06:35:34;94764.13;;;9.95;51.22
30110;BME280;14965;50.660;13.226;2023-04-28T06:38:00;94772.53;;;10.05;50.47
30110;BME280;14965;50.660;13.226;2023-04-28T06:40:26;94770.59;;;10.18;50.17
30110;BME280;14965;50.660;13.226;2023-04-28T06:42:52;94767.66;;;10.25;49.76
30110;BME280;14965;50.660;13.226;2023-04-28T06:45:19;94760.94;;;10.39;50.13
30110;BME280;14965;50.660;13.226;2023-04-28T06:47:45;94772.88;;;10.48;49.46
30110;BME280;14965;50.660;13.226;2023-04-28T06:50:12;94759.50;;;10.47;49.17
30110;BME280;14965;50.660;13.226;2023-04-28T06:52:38;94755.09;;;10.50;49.74
30110;BME280;14965;50.660;13.226;2023-04-28T06:55:05;94763.91;;;10.44;49.60
30110;BME280;14965;50.660;13.226;2023-04-28T06:57:31;94760.16;;;10.38;49.63
30110;BME280;14965;50.660;13.226;2023-04-28T06:59:58;94757.97;;;10.33;49.82
30110;BME280;14965;50.660;13.226;2023-04-28T07:02:23;94757.06;;;10.36;50.13
30110;BME280;14965;50.660;13.226;2023-04-28T07:04:49;94749.25;;;10.47;49.92
30110;BME280;14965;50.660;13.226;2023-04-28T07:07:16;94750.56;;;10.56;49.22
30110;BME280;14965;50.660;13.226;2023-04-28T07:09:42;94755.78;;;10.66;48.78
30110;BME280;14965;50.660;13.226;2023-04-28T07:12:08;94745.72;;;10.72;49.15
30110;BME280;14965;50.660;13.226;2023-04-28T07:14:34;94760.38;;;10.95;50.08
30110;BME280;14965;50.660;13.226;2023-04-28T07:17:01;94747.88;;;11.16;47.77
30110;BME280;14965;50.660;13.226;2023-04-28T07:19:27;94747.22;;;11.25;48.24
30110;BME280;14965;50.660;13.226;2023-04-28T07:21:53;94746.63;;;11.30;48.01
30110;BME280;14965;50.660;13.226;2023-04-28T07:24:20;94749.53;;;11.26;47.32
30110;BME280;14965;50.660;13.226;2023-04-28T07:26:46;94741.09;;;11.30;48.30
30110;BME280;14965;50.660;13.226;2023-04-28T07:29:12;94741.41;;;11.32;48.56
30110;BME280;14965;50.660;13.226;2023-04-28T07:31:38;94744.91;;;11.45;48.17
30110;BME280;14965;50.660;13.226;2023-04-28T07:34:03;94733.44;;;11.46;46.89
30110;BME280;14965;50.660;13.226;2023-04-28T07:36:29;94737.53;;;11.42;47.13
30110;BME280;14965;50.660;13.226;2023-04-28T07:38:55;94738.72;;;11.41;47.28
30110;BME280;14965;50.660;13.226;2023-04-28T07:41:25;94732.97;;;11.48;47.72
30110;BME280;14965;50.660;13.226;2023-04-28T07:43:52;94726.97;;;11.62;47.34
30110;BME280;14965;50.660;13.226;2023-04-28T07:46:19;94734.53;;;11.84;47.13
30110;BME280;14965;50.660;13.226;2023-04-28T07:48:44;94724.22;;;11.84;46.83
30110;BME280;14965;50.660;13.226;2023-04-28T07:51:10;94721.38;;;11.75;46.64
30110;BME280;14965;50.660;13.226;2023-04-28T07:53:36;94733.78;;;11.70;47.99
30110;BME280;14965;50.660;13.226;2023-04-28T07:56:03;94727.44;;;11.83;49.00
30110;BME280;14965;50.660;13.226;2023-04-28T07:58:30;94722.63;;;11.96;48.83
30110;BME280;14965;50.660;13.226;2023-04-28T08:00:56;94720.28;;;11.94;47.75
30110;BME280;14965;50.660;13.226;2023-04-28T08:03:22;94713.56;;;11.95;48.07
30110;BME280;14965;50.660;13.226;2023-04-28T08:05:48;94725.75;;;12.07;47.48
30110;BME280;14965;50.660;13.226;2023-04-28T08:08:13;94726.59;;;11.95;47.48
30110;BME280;14965;50.660;13.226;2023-04-28T08:10:40;94722.88;;;11.89;47.77
30110;BME280;14965;50.660;13.226;2023-04-28T08:13:06;94726.44;;;11.77;47.47
30110;BME280;14965;50.660;13.226;2023-04-28T08:15:33;94725.56;;;11.80;48.50
30110;BME280;14965;50.660;13.226;2023-04-28T08:17:59;94720.22;;;11.85;48.42
30110;BME280;14965;50.660;13.226;2023-04-28T08:20:25;94733.22;;;11.76;48.21
30110;BME280;14965;50.660;13.226;2023-04-28T08:22:51;94733.13;;;11.66;48.52
30110;BME280;14965;50.660;13.226;2023-04-28T08:25:17;94731.50;;;11.56;47.69
30110;BME280;14965;50.660;13.226;2023-04-28T08:27:43;94732.38;;;11.53;48.17
30110;BME280;14965;50.660;13.226;2023-04-28T08:30:09;94727.81;;;11.37;47.51
30110;BME280;14965;50.660;13.226;2023-04-28T08:32:36;94731.59;;;11.31;48.21
30110;BME280;14965;50.660;13.226;2023-04-28T08:35:04;94726.03;;;11.43;49.18
30110;BME280;14965;50.660;13.226;2023-04-28T08:37:30;94735.09;;;11.44;48.38
30110;BME280;14965;50.660;13.226;2023-04-28T08:39:56;94738.41;;;11.39;48.33
30110;BME280;14965;50.660;13.226;2023-04-28T08:42:21;94733.78;;;11.36;48.40
30110;BME280;14965;50.660;13.226;2023-04-28T08:44:50;94733.38;;;11.25;48.71
30110;BME280;14965;50.660;13.226;2023-04-28T08:47:19;94720.69;;;11.14;49.04
30110;BME280;14965;50.660;13.226;2023-04-28T08:49:48;94717.81;;;11.05;48.96
30110;BME280;14965;50.660;13.226;2023-04-28T08:52:16;94731.66;;;11.05;49.25
30110;BME280;14965;50.660;13.226;2023-04-28T08:54:43;94729.63;;;11.18;49.43
30110;BME280;14965;50.660;13.226;2023-04-28T08:57:12;94734.47;;;11.27;48.88
30110;BME280;14965;50.660;13.226;2023-04-28T08:59:38;94734.47;;;11.27;48.27
30110;BME280;14965;50.660;13.226;2023-04-28T09:02:06;94729.72;;;11.28;48.70
30110;BME280;14965;50.660;13.226;2023-04-28T09:04:32;94733.38;;;11.25;48.73
30110;BME280;14965;50.660;13.226;2023-04-28T09:07:00;94738.00;;;11.28;49.44
30110;BME280;14965;50.660;13.226;2023-04-28T09:09:29;94726.19;;;11.27;50.01
30110;BME280;14965;50.660;13.226;2023-04-28T09:11:58;94728.81;;;11.31;49.75
30110;BME280;14965;50.660;13.226;2023-04-28T09:14:25;94726.47;;;11.42;49.67
30110;BME280;14965;50.660;13.226;2023-04-28T09:16:51;94725.56;;;11.45;49.96
30110;BME280;14965;50.660;13.226;2023-04-28T09:19:17;94723.44;;;11.49;50.03
30110;BME280;14965;50.660;13.226;2023-04-28T09:21:52;94729.06;;;11.58;49.65
30110;BME280;14965;50.660;13.226;2023-04-28T09:24:30;94719.75;;;11.65;49.51
30110;BME280;14965;50.660;13.226;2023-04-28T09:26:57;94721.00;;;11.86;50.31
30110;BME280;14965;50.660;13.226;2023-04-28T09:29:24;94724.88;;;11.88;49.42
30110;BME280;14965;50.660;13.226;2023-04-28T09:31:50;94725.38;;;11.96;50.85
30110;BME280;14965;50.660;13.226;2023-04-28T09:34:16;94731.69;;;11.96;49.96
30110;BME280;14965;50.660;13.226;2023-04-28T09:36:42;94734.16;;;11.82;49.53
30110;BME280;14965;50.660;13.226;2023-04-28T09:39:08;94735.06;;;11.79;50.68
30110;BME280;14965;50.660;13.226;2023-04-28T09:41:37;94730.75;;;11.78;51.01
30110;BME280;14965;50.660;13.226;2023-04-28T09:44:14;94740.59;;;11.79;51.51
30110;BME280;14965;50.660;13.226;2023-04-28T09:46:41;94743.22;;;11.82;51.56
30110;BME280;14965;50.660;13.226;2023-04-28T09:49:07;94731.75;;;11.84;51.79
30110;BME280;14965;50.660;13.226;2023-04-28T09:51:34;94728.88;;;11.87;52.03
30110;BME280;14965;50.660;13.226;2023-04-28T09:54:00;94723.34;;;11.87;51.29
30110;BME280;14965;50.660;13.226;2023-04-28T09:56:28;94727.97;;;11.78;52.07
30110;BME280;14965;50.660;13.226;2023-04-28T09:58:57;94716.84;;;11.68;53.89
30110;BME280;14965;50.660;13.226;2023-04-28T10:01:24;94727.84;;;11.59;55.24
30110;BME280;14965;50.660;13.226;2023-04-28T10:03:52;94732.81;;;11.64;59.49
30110;BME280;14965;50.660;13.226;2023-04-28T10:06:18;94733.69;;;11.61;60.16
30110;BME280;14965;50.660;13.226;2023-04-28T10:08:45;94728.28;;;11.58;61.67
30110;BME280;14965;50.660;13.226;2023-04-28T10:11:12;94730.09;;;11.52;66.10
30110;BME280;14965;50.660;13.226;2023-04-28T10:13:38;94739.19;;;11.39;64.49
30110;BME280;14965;50.660;13.226;2023-04-28T10:16:07;94740.69;;;11.18;66.12
30110;BME280;14965;50.660;13.226;2023-04-28T10:18:36;94752.63;;;11.15;67.69
30110;BME280;14965;50.660;13.226;2023-04-28T10:21:04;94738.50;;;11.13;68.43
30110;BME280;14965;50.660;13.226;2023-04-28T10:24:03;94737.25;;;11.14;69.98
30110;BME280;14965;50.660;13.226;2023-04-28T10:27:02;94739.56;;;11.16;70.35
30110;BME280;14965;50.660;13.226;2023-04-28T10:29:30;94735.38;;;11.11;71.79
30110;BME280;14965;50.660;13.226;2023-04-28T10:32:19;94730.66;;;10.99;72.69
30110;BME280;14965;50.660;13.226;2023-04-28T10:34:46;94721.84;;;10.79;73.13
30110;BME280;14965;50.660;13.226;2023-04-28T10:37:13;94731.25;;;10.68;74.46
30110;BME280;14965;50.660;13.226;2023-04-28T10:39:39;94726.28;;;10.63;75.37
30110;BME280;14965;50.660;13.226;2023-04-28T10:42:50;94724.94;;;10.42;74.78
30110;BME280;14965;50.660;13.226;2023-04-28T10:46:00;94720.63;;;10.29;77.26
30110;BME280;14965;50.660;13.226;2023-04-28T10:49:05;94723.34;;;10.16;78.17
30110;BME280;14965;50.660;13.226;2023-04-28T10:51:34;94721.47;;;10.13;78.63
30110;BME280;14965;50.660;13.226;2023-04-28T10:54:14;94723.78;;;10.14;80.12
30110;BME280;14965;50.660;13.226;2023-04-28T10:59:40;94715.41;;;10.18;79.79
30110;BME280;14965;50.660;13.226;2023-04-28T11:02:40;94716.91;;;10.06;80.26
30110;BME280;14965;50.660;13.226;2023-04-28T11:05:17;94710.53;;;10.09;80.85
30110;BME280;14965;50.660;13.226;2023-04-28T11:08:31;94709.97;;;10.14;80.83
30110;BME280;14965;50.660;13.226;2023-04-28T11:11:21;94713.09;;;10.16;82.25
30110;BME280;14965;50.660;13.226;2023-04-28T11:13:49;94710.84;;;10.11;81.13
30110;BME280;14965;50.660;13.226;2023-04-28T11:16:17;94714.06;;;10.10;81.97
30110;BME280;14965;50.660;13.226;2023-04-28T11:18:54;94701.13;;;10.07;81.91
30110;BME280;14965;50.660;13.226;2023-04-28T11:21:24;94702.53;;;9.98;81.64
30110;BME280;14965;50.660;13.226;2023-04-28T11:23:51;94706.19;;;9.83;82.46
30110;BME280;14965;50.660;13.226;2023-04-28T11:26:18;94705.50;;;9.79;83.28
30110;BME280;14965;50.660;13.226;2023-04-28T11:28:50;94700.00;;;9.79;84.04
30110;BME280;14965;50.660;13.226;2023-04-28T11:31:16;94700.66;;;9.83;84.88
30110;BME280;14965;50.660;13.226;2023-04-28T11:33:45;94699.63;;;9.77;84.92
30110;BME280;14965;50.660;13.226;2023-04-28T11:36:23;94697.22;;;9.79;85.48
30110;BME280;14965;50.660;13.226;2023-04-28T11:38:49;94698.09;;;9.76;85.50
30110;BME280;14965;50.660;13.226;2023-04-28T11:41:16;94697.63;;;9.64;85.27
30110;BME280;14965;50.660;13.226;2023-04-28T11:43:42;94681.06;;;9.64;85.63
30110;BME280;14965;50.660;13.226;2023-04-28T11:46:07;94690.66;;;9.60;85.72
30110;BME280;14965;50.660;13.226;2023-04-28T11:48:34;94693.09;;;9.58;85.32
30110;BME280;14965;50.660;13.226;2023-04-28T11:50:59;94689.97;;;9.56;85.86
30110;BME280;14965;50.660;13.226;2023-04-28T11:53:43;94687.63;;;9.41;85.25
30110;BME280;14965;50.660;13.226;2023-04-28T11:56:09;94678.09;;;9.30;86.40
30110;BME280;14965;50.660;13.226;2023-04-28T11:58:35;94679.31;;;9.29;86.43
30110;BME280;14965;50.660;13.226;2023-04-28T12:01:08;94671.72;;;9.33;86.57
30110;BME280;14965;50.660;13.226;2023-04-28T12:03:42;94672.66;;;9.26;84.62
30110;BME280;14965;50.660;13.226;2023-04-28T12:06:08;94677.41;;;9.26;85.35
30110;BME280;14965;50.660;13.226;2023-04-28T12:08:34;94679.81;;;9.23;85.61
30110;BME280;14965;50.660;13.226;2023-04-28T12:11:09;94675.44;;;9.26;85.31
30110;BME280;14965;50.660;13.226;2023-04-28T12:13:35;94682.47;;;9.27;85.42
30110;BME280;14965;50.660;13.226;2023-04-28T12:16:01;94680.03;;;9.16;84.65
30110;BME280;14965;50.660;13.226;2023-04-28T12:18:27;94688.22;;;9.04;84.97
30110;BME280;14965;50.660;13.226;2023-04-28T12:20:53;94691.75;;;9.04;85.16
30110;BME280;14965;50.660;13.226;2023-04-28T12:23:29;94687.25;;;9.10;86.71
30110;BME280;14965;50.660;13.226;2023-04-28T12:25:54;94689.59;;;9.12;86.49
30110;BME280;14965;50.660;13.226;2023-04-28T12:28:22;94681.41;;;9.08;85.72
30110;BME280;14965;50.660;13.226;2023-04-28T12:30:48;94679.69;;;8.98;85.76
30110;BME280;14965;50.660;13.226;2023-04-28T12:33:21;94688.50;;;8.93;86.19
30110;BME280;14965;50.660;13.226;2023-04-28T12:35:48;94680.22;;;8.93;85.99
30110;BME280;14965;50.660;13.226;2023-04-28T12:38:14;94671.44;;;8.98;87.52
30110;BME280;14965;50.660;13.226;2023-04-28T12:40:40;94664.88;;;9.08;86.86
30110;BME280;14965;50.660;13.226;2023-04-28T12:43:06;94655.22;;;9.16;86.39
30110;BME280;14965;50.660;13.226;2023-04-28T12:45:33;94656.81;;;9.30;87.39
30110;BME280;14965;50.660;13.226;2023-04-28T12:47:59;94646.69;;;9.40;85.45
30110;BME280;14965;50.660;13.226;2023-04-28T12:50:25;94655.44;;;9.51;85.76
30110;BME280;14965;50.660;13.226;2023-04-28T12:52:51;94660.97;;;9.51;84.58
30110;BME280;14965;50.660;13.226;2023-04-28T12:55:17;94653.59;;;9.61;85.55
30110;BME280;14965;50.660;13.226;2023-04-28T12:57:42;94646.75;;;9.65;84.27
30110;BME280;14965;50.660;13.226;2023-04-28T13:00:10;94652.75;;;9.77;85.15